Time;durP1;ratioP1;P1;durP2;ratioP2;P2;SDS_P1;SDS_P2;PMS_P1;PMS_P2;Temp;Humidity;BMP_temperature;BMP_pressure;BME280_temperature;BME280_humidity;BME280_pressure;Samples;Min_cycle;Max_cycle;Signal;HPM_P1;HPM_P2
2022/12/09 00:01:29;;;;;;;34.00;25.40;;;;;;;2.70;100.00;96919.64;107757;1260;69948;-70
2022/12/09 00:03:58;;;;;;;34.20;25.50;;;;;;;2.71;100.00;96927.13;107763;1263;60063;-70
2022/12/09 00:06:29;;;;;;;34.00;23.80;;;;;;;2.73;100.00;96929.08;107649;1267;59655;-70
2022/12/09 00:08:58;;;;;;;38.30;26.30;;;;;;;2.76;100.00;96929.96;107660;1265;71346;-70
2022/12/09 00:11:28;;;;;;;30.50;22.10;;;;;;;2.77;100.00;96934.92;107705;1254;67771;-70
2022/12/09 00:13:58;;;;;;;30.20;22.40;;;;;;;2.78;100.00;96943.45;107719;1263;68534;-69
2022/12/09 00:16:28;;;;;;;25.10;21.00;;;;;;;2.79;100.00;96950.67;107730;1267;59704;-69
2022/12/09 00:18:58;;;;;;;30.60;22.00;;;;;;;2.80;100.00;96946.14;107790;1267;59748;-70
2022/12/09 00:21:32;;;;;;;25.80;18.30;;;;;;;2.79;100.00;96953.90;107756;1267;71464;-70
2022/12/09 00:24:04;;;;;;;28.50;20.20;;;;;;;2.82;100.00;96952.59;107756;1267;69155;-69
2022/12/09 00:26:33;;;;;;;25.30;18.50;;;;;;;2.85;100.00;96958.42;107645;1267;69155;-70
2022/12/09 00:29:03;;;;;;;23.50;17.20;;;;;;;2.87;100.00;96962.14;107708;1265;59695;-70
2022/12/09 00:31:34;;;;;;;20.20;15.60;;;;;;;2.89;100.00;96965.48;107723;1263;59713;-70
2022/12/09 00:34:07;;;;;;;24.30;16.80;;;;;;;2.91;100.00;96962.77;107759;1267;71296;-69
2022/12/09 00:36:39;;;;;;;25.40;17.50;;;;;;;2.93;100.00;96968.36;107665;1267;69811;-68
2022/12/09 00:39:11;;;;;;;37.70;26.40;;;;;;;2.94;100.00;96968.85;107625;1268;68457;-68
2022/12/09 00:41:40;;;;;;;38.20;28.50;;;;;;;2.91;100.00;96965.06;107640;1267;59695;-69
2022/12/09 00:44:11;;;;;;;55.30;39.10;;;;;;;2.87;100.00;96960.95;107636;1267;59665;-69
2022/12/09 00:46:41;;;;;;;50.90;36.50;;;;;;;2.81;100.00;96969.83;107720;1267;72069;-69
2022/12/09 00:49:13;;;;;;;77.30;53.80;;;;;;;2.78;100.00;96972.91;107663;1260;69815;-69
2022/12/09 00:51:44;;;;;;;48.30;33.30;;;;;;;2.75;100.00;96975.79;107653;1263;69815;-69
2022/12/09 00:54:14;;;;;;;42.50;30.90;;;;;;;2.74;100.00;96970.52;107778;1262;59757;-69
2022/12/09 00:56:45;;;;;;;31.80;23.40;;;;;;;2.73;100.00;96960.78;107643;1267;60128;-69
2022/12/09 00:59:16;;;;;;;35.60;25.90;;;;;;;2.71;100.00;96958.23;107683;1267;71603;-68
2022/12/09 01:01:46;;;;;;;44.80;31.10;;;;;;;2.71;100.00;96956.58;107634;1267;68652;-69
2022/12/09 01:04:16;;;;;;;32.00;24.50;;;;;;;2.69;100.00;96962.52;107659;1265;69825;-69
2022/12/09 01:06:46;;;;;;;38.30;30.10;;;;;;;2.69;100.00;96966.12;107633;1265;59786;-69
2022/12/09 01:09:17;;;;;;;43.00;32.00;;;;;;;2.69;100.00;96961.63;107764;1263;59655;-69
2022/12/09 01:11:47;;;;;;;35.40;26.70;;;;;;;2.69;100.00;96960.79;107722;1263;72423;-69
2022/12/09 01:14:16;;;;;;;29.60;22.50;;;;;;;2.68;100.00;96955.83;107715;1264;69162;-70
2022/12/09 01:16:46;;;;;;;28.10;21.10;;;;;;;2.65;100.00;96949.79;107665;1266;69890;-68
2022/12/09 01:19:15;;;;;;;36.20;25.00;;;;;;;2.59;100.00;96947.52;107665;1269;59781;-69
2022/12/09 01:21:45;;;;;;;42.30;28.60;;;;;;;2.50;100.00;96944.98;107691;1267;59723;-69
2022/12/09 01:24:15;;;;;;;39.90;26.90;;;;;;;2.42;100.00;96939.88;107680;1267;70808;-68
2022/12/09 01:26:44;;;;;;;36.50;26.60;;;;;;;2.33;100.00;96943.60;107754;1265;69216;-68
2022/12/09 01:29:14;;;;;;;47.50;34.50;;;;;;;2.24;100.00;96945.04;107795;1267;69137;-68
2022/12/09 01:31:46;;;;;;;46.00;33.80;;;;;;;2.14;100.00;96943.61;107666;1263;59782;-69
2022/12/09 01:34:16;;;;;;;45.40;32.90;;;;;;;2.04;100.00;96937.20;107698;1268;59703;-68
2022/12/09 01:36:47;;;;;;;49.90;35.20;;;;;;;1.95;100.00;96928.17;107746;1262;70448;-68
2022/12/09 01:39:17;;;;;;;42.90;29.10;;;;;;;1.85;100.00;96934.13;107670;1265;69362;-69
2022/12/09 01:41:51;;;;;;;40.40;28.10;;;;;;;1.76;100.00;96938.63;107741;1265;69642;-69
2022/12/09 01:44:25;;;;;;;37.20;25.90;;;;;;;1.69;100.00;96944.14;107775;1263;60167;-70
2022/12/09 01:46:58;;;;;;;39.10;28.40;;;;;;;1.61;100.00;96940.34;107795;1267;60104;-69
2022/12/09 01:49:33;;;;;;;40.50;28.60;;;;;;;1.55;100.00;96941.80;107803;1267;71416;-69
2022/12/09 01:52:09;;;;;;;41.90;27.10;;;;;;;1.49;100.00;96948.63;107768;1263;68233;-69
2022/12/09 01:54:42;;;;;;;41.40;27.80;;;;;;;1.43;100.00;96945.28;107667;1265;69867;-69
2022/12/09 01:57:12;;;;;;;37.20;26.50;;;;;;;1.35;100.00;96942.88;107643;1269;59771;-69
2022/12/09 01:59:44;;;;;;;40.30;27.00;;;;;;;1.27;100.00;96944.21;107650;1265;59694;-69
2022/12/09 02:02:17;;;;;;;36.30;22.20;;;;;;;1.23;100.00;96950.58;107722;1263;71650;-69
2022/12/09 02:04:48;;;;;;;27.30;19.30;;;;;;;1.18;100.00;96948.06;107659;1265;68622;-69
2022/12/09 02:07:19;;;;;;;27.60;17.70;;;;;;;1.17;100.00;96940.73;107675;1265;69262;-69
2022/12/09 02:09:51;;;;;;;22.50;17.10;;;;;;;1.22;100.00;96940.84;107704;1267;59821;-70
2022/12/09 02:13:05;;;;;;;21.10;14.90;;;;;;;1.22;100.00;96942.22;107815;1263;59718;-69
2022/12/09 02:15:49;;;;;;;25.20;14.70;;;;;;;1.20;100.00;96939.58;107755;1262;71346;-69
2022/12/09 02:18:35;;;;;;;27.80;18.40;;;;;;;1.21;100.00;96942.77;107784;1263;67297;-68
2022/12/09 02:21:08;;;;;;;27.50;18.30;;;;;;;1.14;100.00;96943.27;107801;1267;69247;-69
2022/12/09 02:23:52;;;;;;;23.60;14.80;;;;;;;1.08;100.00;96940.95;107680;1267;59761;-68
2022/12/09 02:26:44;;;;;;;26.80;16.90;;;;;;;1.01;100.00;96946.71;107706;1268;59725;-68
2022/12/09 02:29:39;;;;;;;35.10;20.20;;;;;;;0.98;100.00;96949.77;107812;1267;71318;-68
2022/12/09 02:32:15;;;;;;;33.70;24.00;;;;;;;0.92;100.00;96944.35;107739;1267;69246;-68
2022/12/09 02:34:56;;;;;;;236.90;65.50;;;;;;;0.87;100.00;96948.86;107649;1267;69191;-69
2022/12/09 02:37:37;;;;;;;138.10;26.10;;;;;;;0.80;100.00;96951.73;107648;1268;59693;-69
2022/12/09 02:40:39;;;;;;;50.70;19.10;;;;;;;0.74;100.00;96953.00;107768;1263;59718;-69
2022/12/09 02:43:11;;;;;;;58.10;31.30;;;;;;;0.73;100.00;96953.02;107618;1266;69954;-69
2022/12/09 02:45:43;;;;;;;37.60;23.50;;;;;;;0.71;100.00;96950.90;107753;1267;69207;-69
2022/12/09 02:48:17;;;;;;;29.50;17.90;;;;;;;0.68;100.00;96954.24;107647;1265;68759;-68
2022/12/09 02:50:50;;;;;;;19.60;12.20;;;;;;;0.67;100.00;96962.55;107645;1267;59784;-68
2022/12/09 02:53:22;;;;;;;23.00;14.90;;;;;;;0.71;100.00;96975.41;107637;1265;59763;-69
2022/12/09 02:55:54;;;;;;;23.80;14.90;;;;;;;0.80;100.00;96962.16;107677;1269;70410;-68
2022/12/09 02:58:24;;;;;;;22.10;12.70;;;;;;;0.84;100.00;96955.69;107682;1265;69251;-68
2022/12/09 03:00:55;;;;;;;21.30;13.90;;;;;;;0.86;100.00;96955.23;107723;1265;69960;-68
2022/12/09 03:03:29;;;;;;;16.20;11.40;;;;;;;0.89;100.00;96947.75;107775;1267;59729;-68
2022/12/09 03:06:08;;;;;;;20.20;14.50;;;;;;;0.93;100.00;96942.96;107739;1267;59852;-69
2022/12/09 03:08:39;;;;;;;18.70;11.10;;;;;;;0.98;100.00;96939.79;107758;1267;70640;-69
2022/12/09 03:11:16;;;;;;;14.70;9.50;;;;;;;1.06;100.00;96932.63;107765;1267;69077;-69
2022/12/09 03:13:47;;;;;;;25.50;15.00;;;;;;;1.12;100.00;96928.42;107779;1263;68914;-68
2022/12/09 03:16:30;;;;;;;37.90;22.40;;;;;;;1.17;100.00;96924.06;107737;1267;59714;-68
2022/12/09 03:19:27;;;;;;;31.40;20.80;;;;;;;1.19;100.00;96941.82;107702;1266;59701;-68
2022/12/09 03:22:02;;;;;;;27.10;16.50;;;;;;;1.20;100.00;96948.83;107687;1263;71355;-69
2022/12/09 03:24:41;;;;;;;26.70;17.70;;;;;;;1.22;100.00;96943.42;107691;1265;69076;-69
2022/12/09 03:27:17;;;;;;;40.00;25.20;;;;;;;1.22;100.00;96929.53;107738;1263;69294;-68
2022/12/09 03:29:49;;;;;;;43.50;22.10;;;;;;;1.18;100.00;96909.77;107746;1267;59711;-68
2022/12/09 03:32:22;;;;;;;52.20;26.50;;;;;;;1.09;100.00;96904.69;107718;1263;59719;-69
2022/12/09 03:35:00;;;;;;;35.00;22.00;;;;;;;0.96;100.00;96927.02;107698;1267;69861;-69
2022/12/09 03:37:32;;;;;;;28.80;19.60;;;;;;;0.93;100.00;96947.74;107760;1267;69106;-69
2022/12/09 03:40:07;;;;;;;26.80;19.60;;;;;;;0.93;100.00;96967.33;107688;1269;69311;-69
2022/12/09 03:42:48;;;;;;;;;;;;;;;0.93;100.00;96966.95;107742;1267;59759;-69
2022/12/09 03:45:19;;;;;;;28.40;20.10;;;;;;;0.93;100.00;96961.48;107791;1267;59699;-69
2022/12/09 03:47:50;;;;;;;34.30;20.60;;;;;;;0.95;100.00;96940.80;107768;1267;72350;-69
2022/12/09 03:50:23;;;;;;;39.60;22.00;;;;;;;1.02;100.00;96938.78;107728;1267;69216;-69
2022/12/09 03:53:01;;;;;;;33.20;20.00;;;;;;;1.09;100.00;96947.77;107697;1267;69775;-69
2022/12/09 03:55:52;;;;;;;27.70;17.80;;;;;;;1.14;100.00;96952.69;107669;1267;59745;-69
2022/12/09 03:58:23;;;;;;;36.90;21.70;;;;;;;1.21;100.00;96955.14;107680;1267;59706;-69
2022/12/09 04:00:53;;;;;;;38.80;21.90;;;;;;;1.25;100.00;96964.08;107752;1263;72009;-71
2022/12/09 04:03:23;;;;;;;;;;;;;;;1.24;100.00;96966.19;107780;1266;68458;-69
2022/12/09 04:05:53;;;;;;;27.20;18.00;;;;;;;1.22;100.00;96961.65;107693;1267;69141;-69
2022/12/09 04:08:22;;;;;;;26.30;18.00;;;;;;;1.20;100.00;96965.48;107763;1267;59788;-70
2022/12/09 04:10:52;;;;;;;28.50;18.20;;;;;;;1.21;100.00;96962.55;107826;1263;59652;-70
2022/12/09 04:13:22;;;;;;;24.00;17.50;;;;;;;1.22;100.00;96968.17;107812;1266;72100;-68
2022/12/09 04:15:52;;;;;;;;;;;;;;;1.23;100.00;96966.89;107771;1267;68450;-68
2022/12/09 04:18:21;;;;;;;27.00;17.40;;;;;;;1.23;100.00;96964.66;107751;1265;68708;-68
2022/12/09 04:20:51;;;;;;;;;;;;;;;1.24;100.00;96951.90;107672;1265;59761;-68
2022/12/09 04:23:21;;;;;;;19.40;12.30;;;;;;;1.26;100.00;96933.09;107674;1269;59635;-68
2022/12/09 04:25:51;;;;;;;23.10;13.10;;;;;;;1.33;100.00;96933.89;107670;1266;71863;-68
2022/12/09 04:28:20;;;;;;;29.80;16.20;;;;;;;1.39;100.00;96945.43;107779;1267;68450;-69
2022/12/09 04:30:49;;;;;;;25.20;14.60;;;;;;;1.46;100.00;96950.82;107708;1254;69710;-69
2022/12/09 04:33:19;;;;;;;24.70;13.80;;;;;;;1.47;100.00;96952.80;107663;1260;59762;-69
2022/12/09 04:35:49;;;;;;;23.30;13.40;;;;;;;1.50;100.00;96957.31;107774;1269;59783;-69
2022/12/09 04:38:18;;;;;;;24.10;15.10;;;;;;;1.54;100.00;96957.48;107811;1267;71075;-70
2022/12/09 04:40:48;;;;;;;19.70;13.00;;;;;;;1.58;100.00;96963.35;107810;1265;68682;-69
2022/12/09 04:43:17;;;;;;;21.20;12.60;;;;;;;1.61;100.00;96962.19;107750;1267;69274;-69
2022/12/09 04:45:46;;;;;;;23.10;14.00;;;;;;;1.66;100.00;96961.63;107835;1269;59830;-70
2022/12/09 04:48:16;;;;;;;24.00;16.00;;;;;;;1.70;100.00;96962.10;107813;1265;59738;-68
2022/12/09 04:50:46;;;;;;;19.70;12.40;;;;;;;1.74;100.00;96963.45;107702;1265;71878;-71
2022/12/09 04:53:16;;;;;;;20.60;12.20;;;;;;;1.78;100.00;96963.63;107692;1263;69155;-71
2022/12/09 04:55:45;;;;;;;19.80;12.00;;;;;;;1.81;100.00;96961.46;107769;1256;68827;-70
2022/12/09 04:58:14;;;;;;;17.50;11.50;;;;;;;1.82;100.00;96957.48;107831;1267;59823;-69
2022/12/09 05:00:43;;;;;;;19.60;13.20;;;;;;;1.82;100.00;96955.24;107783;1259;60118;-70
2022/12/09 05:03:13;;;;;;;21.20;11.80;;;;;;;1.82;100.00;96964.52;107756;1267;71969;-69
2022/12/09 05:05:42;;;;;;;18.40;12.10;;;;;;;1.82;100.00;96969.34;107824;1263;69804;-69
2022/12/09 05:08:12;;;;;;;21.50;14.10;;;;;;;1.80;100.00;96971.98;107775;1267;70051;-69
2022/12/09 05:10:48;;;;;;;20.30;13.80;;;;;;;1.78;100.00;96975.32;107754;1265;59716;-68
2022/12/09 05:13:17;;;;;;;19.80;11.80;;;;;;;1.78;100.00;96978.05;107802;1265;59754;-70
2022/12/09 05:15:46;;;;;;;22.30;16.20;;;;;;;1.79;100.00;96977.31;107693;1268;71385;-69
2022/12/09 05:18:15;;;;;;;35.80;23.30;;;;;;;1.83;100.00;96974.27;107789;1263;69791;-69
2022/12/09 05:20:45;;;;;;;32.00;19.70;;;;;;;1.86;100.00;96974.15;107810;1267;70261;-69
2022/12/09 05:23:14;;;;;;;25.60;16.50;;;;;;;1.85;100.00;96972.11;107804;1267;59771;-69
2022/12/09 05:25:43;;;;;;;33.60;22.70;;;;;;;1.83;100.00;96969.08;107691;1265;59693;-69
2022/12/09 05:28:12;;;;;;;31.40;20.80;;;;;;;1.81;100.00;96966.09;107762;1267;71993;-69
2022/12/09 05:30:43;;;;;;;27.90;19.10;;;;;;;1.80;100.00;96966.98;107782;1268;69039;-69
2022/12/09 05:33:12;;;;;;;29.30;20.90;;;;;;;1.80;100.00;96967.84;107621;1265;68464;-67
2022/12/09 05:35:43;;;;;;;29.70;20.00;;;;;;;1.82;100.00;96970.00;107773;1268;59758;-68
2022/12/09 05:38:21;;;;;;;32.20;21.90;;;;;;;1.84;100.00;96970.09;107716;1263;59703;-68
2022/12/09 05:40:53;;;;;;;31.00;20.60;;;;;;;1.84;100.00;96974.02;107724;1265;70593;-68
2022/12/09 05:43:22;;;;;;;30.40;21.00;;;;;;;1.85;100.00;96976.55;107714;1267;69153;-69
2022/12/09 05:45:51;;;;;;;23.40;16.20;;;;;;;1.86;100.00;96982.34;107673;1265;69117;-69
2022/12/09 05:48:20;;;;;;;23.90;16.10;;;;;;;1.87;100.00;96988.32;107678;1268;59869;-69
2022/12/09 05:50:58;;;;;;;24.10;15.60;;;;;;;1.89;100.00;96991.67;107745;1265;59661;-69
2022/12/09 05:53:28;;;;;;;21.80;15.20;;;;;;;1.89;100.00;96982.75;107673;1264;71999;-68
2022/12/09 05:55:57;;;;;;;21.80;15.20;;;;;;;1.87;100.00;96985.42;107655;1265;67627;-69
2022/12/09 05:58:27;;;;;;;19.90;14.40;;;;;;;1.85;100.00;96986.36;107695;1265;69915;-69
2022/12/09 06:01:02;;;;;;;20.40;13.20;;;;;;;1.83;100.00;96985.08;107669;1267;59687;-68
2022/12/09 06:03:32;;;;;;;21.20;12.80;;;;;;;1.80;100.00;96982.30;107695;1267;59789;-68
2022/12/09 06:06:13;;;;;;;17.40;10.90;;;;;;;1.77;100.00;96986.20;107695;1267;71540;-68
2022/12/09 06:08:44;;;;;;;;;;;;;;;1.75;100.00;96984.20;107635;1263;69832;-68
2022/12/09 06:11:19;;;;;;;21.00;14.50;;;;;;;1.73;100.00;96980.90;107783;1266;68396;-68
2022/12/09 06:13:50;;;;;;;21.20;14.60;;;;;;;1.67;100.00;96979.77;107707;1269;59733;-69
2022/12/09 06:16:22;;;;;;;21.20;15.80;;;;;;;1.60;100.00;96983.69;107787;1267;59752;-69
2022/12/09 06:18:52;;;;;;;21.70;16.50;;;;;;;1.53;100.00;96981.90;107703;1264;71986;-69
2022/12/09 06:21:22;;;;;;;26.00;18.70;;;;;;;1.48;100.00;96987.95;107743;1267;68527;-70
2022/12/09 06:23:51;;;;;;;26.70;19.00;;;;;;;1.46;100.00;96983.08;107776;1263;68673;-69
2022/12/09 06:26:25;;;;;;;24.70;15.80;;;;;;;1.44;100.00;96980.94;107648;1266;59775;-69
2022/12/09 06:28:55;;;;;;;25.10;16.90;;;;;;;1.43;100.00;96982.71;107675;1265;59756;-68
2022/12/09 06:31:27;;;;;;;18.80;12.90;;;;;;;1.42;100.00;96991.14;107662;1265;70475;-69
2022/12/09 06:33:57;;;;;;;16.10;11.30;;;;;;;1.43;100.00;96996.63;107831;1265;69861;-69
2022/12/09 06:36:28;;;;;;;;;;;;;;;1.46;100.00;97003.86;107737;1269;69643;-69
2022/12/09 06:39:00;;;;;;;58.50;35.20;;;;;;;1.48;100.00;97010.46;107704;1266;59729;-69
2022/12/09 06:41:42;;;;;;;40.30;26.30;;;;;;;1.44;100.00;97009.11;107766;1266;59664;-69
2022/12/09 06:44:11;;;;;;;38.90;23.20;;;;;;;1.40;100.00;97011.15;107767;1263;71995;-69
2022/12/09 06:46:50;;;;;;;30.50;20.20;;;;;;;1.41;100.00;97013.18;107642;1267;68674;-69
2022/12/09 06:49:20;;;;;;;33.60;20.50;;;;;;;1.43;100.00;97010.35;107699;1269;69906;-67
2022/12/09 06:51:49;;;;;;;38.70;23.80;;;;;;;1.49;100.00;97008.90;107759;1263;59687;-67
2022/12/09 06:54:18;;;;;;;33.80;22.10;;;;;;;1.58;100.00;97005.44;107731;1266;59834;-68
2022/12/09 06:56:48;;;;;;;39.30;23.00;;;;;;;1.77;100.00;97005.79;107637;1267;71642;-68
2022/12/09 06:59:17;;;;;;;47.90;30.50;;;;;;;2.14;100.00;97000.48;107727;1269;69173;-68
2022/12/09 07:01:46;;;;;;;51.90;34.50;;;;;;;2.67;100.00;96996.86;107631;1266;68324;-68
2022/12/09 07:04:15;;;;;;;39.80;27.30;;;;;;;3.19;100.00;97003.41;107699;1269;59763;-68
2022/12/09 07:06:45;;;;;;;48.30;32.80;;;;;;;3.76;100.00;96999.29;107659;1270;59767;-68
2022/12/09 07:09:16;;;;;;;;;;;;;;;4.33;99.22;96997.64;107663;1268;71984;-68
2022/12/09 07:11:48;;;;;;;35.90;29.60;;;;;;;4.83;96.63;97007.48;107645;1263;69170;-68
2022/12/09 07:14:17;;;;;;;28.10;21.40;;;;;;;5.31;98.63;97015.47;107699;1267;69250;-69
2022/12/09 07:16:46;;;;;;;30.60;25.40;;;;;;;5.75;96.26;97016.67;107648;1269;59777;-68
2022/12/09 07:19:19;;;;;;;29.10;24.20;;;;;;;6.11;90.62;97014.55;107630;1267;59702;-69
2022/12/09 07:21:50;;;;;;;27.50;24.20;;;;;;;6.36;86.98;97015.06;107631;1267;70543;-68
2022/12/09 07:24:19;;;;;;;34.00;26.80;;;;;;;6.73;86.21;97017.42;107593;1263;69799;-68
2022/12/09 07:26:49;;;;;;;27.20;22.50;;;;;;;7.10;89.10;97010.85;107757;1267;69102;-68
2022/12/09 07:29:19;;;;;;;29.10;25.20;;;;;;;7.64;93.65;97007.15;107827;1263;59704;-67
2022/12/09 07:31:48;;;;;;;25.20;21.30;;;;;;;7.81;80.59;96999.41;107708;1267;59770;-68
2022/12/09 07:34:17;;;;;;;26.80;21.70;;;;;;;8.12;80.48;97001.21;107639;1266;71449;-68
2022/12/09 07:36:47;;;;;;;22.90;18.80;;;;;;;8.48;77.86;96998.38;107669;1267;68237;-69
2022/12/09 07:39:17;;;;;;;25.10;20.60;;;;;;;8.62;75.77;97001.71;107677;1265;67388;-68
2022/12/09 07:41:57;;;;;;;22.20;19.80;;;;;;;8.78;74.61;97004.32;107759;1267;59750;-68
2022/12/09 07:44:28;;;;;;;34.20;29.40;;;;;;;8.90;74.44;97010.47;107674;1265;59842;-68
2022/12/09 07:46:58;;;;;;;47.30;40.90;;;;;;;9.49;75.08;97015.54;107681;1266;71444;-67
2022/12/09 07:49:27;;;;;;;55.60;46.50;;;;;;;9.60;71.80;97015.78;107694;1267;70159;-68
2022/12/09 07:51:57;;;;;;;51.80;45.30;;;;;;;9.76;70.43;97012.34;107670;1266;70207;-68
2022/12/09 07:54:26;;;;;;;56.80;49.40;;;;;;;9.97;69.70;97007.05;107902;1266;59724;-67
2022/12/09 07:56:55;;;;;;;42.90;35.60;;;;;;;10.30;70.69;97005.22;107739;1266;59709;-69
2022/12/09 07:59:24;;;;;;;40.10;35.90;;;;;;;10.90;69.14;97004.46;107802;1267;71395;-68
2022/12/09 08:01:53;;;;;;;32.40;27.80;;;;;;;11.25;65.47;97004.40;107789;1267;69726;-68
2022/12/09 08:04:27;;;;;;;31.60;28.30;;;;;;;12.06;72.34;97003.56;107711;1266;69293;-68
2022/12/09 08:06:57;;;;;;;31.60;27.20;;;;;;;12.31;63.64;96997.67;107805;1267;59765;-69
2022/12/09 08:09:27;;;;;;;26.60;23.20;;;;;;;12.25;62.65;96999.02;107833;1262;59652;-68
2022/12/09 08:11:56;;;;;;;45.00;40.00;;;;;;;12.50;62.03;97003.80;107804;1266;72002;-68
2022/12/09 08:14:26;;;;;;;54.30;48.40;;;;;;;12.18;60.78;96997.67;107735;1262;69066;-69
2022/12/09 08:16:55;;;;;;;39.00;31.60;;;;;;;12.09;61.89;96992.89;107769;1268;69119;-68
2022/12/09 08:19:24;;;;;;;32.90;28.10;;;;;;;12.35;61.37;96991.89;107787;1267;59732;-68
2022/12/09 08:21:53;;;;;;;37.70;33.30;;;;;;;12.08;62.73;96990.16;107798;1267;59680;-68
2022/12/09 08:24:22;;;;;;;31.80;28.50;;;;;;;11.94;62.35;96991.20;107833;1266;70504;-69
2022/12/09 08:26:52;;;;;;;19.00;17.00;;;;;;;12.37;62.86;96984.04;107798;1266;69105;-69
2022/12/09 08:29:21;;;;;;;22.80;19.40;;;;;;;12.32;61.41;96978.81;107636;1268;69169;-70
2022/12/09 08:31:51;;;;;;;16.30;14.60;;;;;;;11.94;62.85;96982.98;107692;1267;59778;-69
2022/12/09 08:34:20;;;;;;;16.90;14.00;;;;;;;11.81;63.02;96980.38;107750;1267;59759;-68
2022/12/09 08:36:49;;;;;;;14.50;12.80;;;;;;;11.73;63.73;96976.70;107652;1267;69899;-68
2022/12/09 08:39:23;;;;;;;16.10;13.80;;;;;;;11.59;64.96;96969.88;107700;1268;69859;-68
2022/12/09 08:41:52;;;;;;;19.30;14.10;;;;;;;11.28;65.66;96969.67;107645;1267;68268;-69
2022/12/09 08:44:22;;;;;;;14.20;12.20;;;;;;;11.12;66.73;96973.09;107631;1269;59683;-69
2022/12/09 08:46:52;;;;;;;15.70;13.10;;;;;;;10.93;66.78;96971.10;107723;1269;59742;-69
2022/12/09 08:49:22;;;;;;;16.60;13.60;;;;;;;10.55;68.00;96967.35;107701;1265;71346;-69
2022/12/09 08:51:52;;;;;;;21.80;19.10;;;;;;;10.31;69.72;96964.04;107734;1265;69205;-68
2022/12/09 08:54:22;;;;;;;24.50;19.20;;;;;;;10.40;69.87;96979.02;107704;1267;69923;-69
2022/12/09 08:56:56;;;;;;;19.30;16.10;;;;;;;10.32;70.14;96977.21;107713;1267;59703;-69
2022/12/09 08:59:27;;;;;;;16.60;13.70;;;;;;;10.27;70.49;96974.15;107827;1267;59721;-69
2022/12/09 09:01:55;;;;;;;14.00;11.40;;;;;;;10.55;69.98;96973.45;107638;1263;71547;-70
2022/12/09 09:04:25;;;;;;;12.80;9.80;;;;;;;10.86;70.33;96970.15;107698;1267;69812;-70
2022/12/09 09:06:54;;;;;;;12.10;9.80;;;;;;;11.13;69.16;96966.14;107657;1269;69131;-70
2022/12/09 09:09:24;;;;;;;14.60;11.60;;;;;;;11.26;68.52;96960.59;107631;1267;59742;-70
2022/12/09 09:11:53;;;;;;;15.10;12.50;;;;;;;11.21;68.59;96954.54;107661;1268;59678;-70
2022/12/09 09:14:22;;;;;;;12.60;10.20;;;;;;;11.22;68.57;96954.09;107644;1267;71312;-70
2022/12/09 09:16:51;;;;;;;8.90;7.30;;;;;;;11.40;67.71;96952.27;107655;1267;68370;-70
2022/12/09 09:19:24;;;;;;;14.40;11.40;;;;;;;11.59;67.46;96952.72;107737;1263;69229;-71
2022/12/09 09:21:54;;;;;;;18.30;13.70;;;;;;;11.72;67.78;96955.31;107908;1263;59698;-69
2022/12/09 09:24:25;;;;;;;15.30;11.60;;;;;;;11.66;67.14;96960.88;107629;1266;59777;-69
2022/12/09 09:26:55;;;;;;;10.60;8.00;;;;;;;11.72;66.70;96957.04;107666;1267;72083;-69
2022/12/09 09:29:24;;;;;;;;;;;;;;;11.76;65.28;96956.40;107786;1269;69881;-70
2022/12/09 09:31:53;;;;;;;10.60;8.30;;;;;;;11.60;65.83;96957.39;107715;1265;69273;-70
2022/12/09 09:34:25;;;;;;;10.30;8.20;;;;;;;11.74;66.26;96956.35;107717;1269;59705;-70
2022/12/09 09:36:55;;;;;;;9.20;8.00;;;;;;;11.85;65.79;96951.27;107680;1269;59706;-69
2022/12/09 09:39:25;;;;;;;9.20;7.20;;;;;;;11.81;65.61;96943.77;107643;1267;71571;-70
2022/12/09 09:41:56;;;;;;;11.10;7.80;;;;;;;11.82;66.65;96935.63;107724;1270;69874;-70
2022/12/09 09:44:39;;;;;;;9.50;7.40;;;;;;;11.68;65.99;96935.27;107666;1266;69275;-70
2022/12/09 09:47:24;;;;;;;8.90;7.50;;;;;;;11.44;66.43;96934.07;107661;1270;59741;-70
2022/12/09 09:50:03;;;;;;;9.30;7.60;;;;;;;11.12;66.67;96924.23;107681;1270;59626;-70
2022/12/09 09:52:37;;;;;;;11.90;8.40;;;;;;;10.83;67.56;96909.35;107627;1267;71950;-70
2022/12/09 09:55:18;;;;;;;11.20;7.10;;;;;;;10.68;68.48;96906.06;107654;1267;69668;-70
2022/12/09 09:57:47;;;;;;;9.60;7.50;;;;;;;10.75;69.47;96905.13;107784;1267;69273;-70
2022/12/09 10:00:31;;;;;;;9.40;6.10;;;;;;;11.55;68.51;96897.79;107739;1267;59719;-70
2022/12/09 10:03:41;;;;;;;7.20;5.70;;;;;;;12.79;65.78;96894.94;107682;1261;59746;-68
2022/12/09 10:06:19;;;;;;;7.00;5.50;;;;;;;13.92;63.67;96889.54;107684;1267;71194;-69
2022/12/09 10:09:27;;;;;;;7.10;5.70;;;;;;;14.26;60.72;96886.75;107666;1270;69058;-70
2022/12/09 10:12:14;;;;;;;7.90;6.00;;;;;;;13.99;59.74;96882.54;107784;1268;68517;-71
2022/12/09 10:15:01;;;;;;;6.40;5.60;;;;;;;13.53;59.80;96893.20;107636;1267;59715;-71
2022/12/09 10:17:49;;;;;;;6.60;5.60;;;;;;;12.80;60.39;96893.88;107827;1268;59723;-71
2022/12/09 10:20:20;;;;;;;8.10;6.30;;;;;;;12.04;61.75;96890.09;107640;1267;71751;-71
2022/12/09 10:22:56;;;;;;;7.70;5.80;;;;;;;11.39;63.89;96883.04;107690;1265;69028;-69
2022/12/09 10:25:29;;;;;;;7.20;6.10;;;;;;;10.82;65.21;96884.33;107274;1267;667591;-70
2022/12/09 10:28:12;;;;;;;7.20;5.20;;;;;;;10.39;66.43;96875.31;107691;1265;59769;-70
2022/12/09 10:30:41;;;;;;;8.30;5.40;;;;;;;10.08;67.27;96875.50;107676;1268;59680;-70
2022/12/09 10:33:14;;;;;;;8.10;5.50;;;;;;;9.78;69.28;96864.03;107653;1268;71232;-70
2022/12/09 10:35:45;;;;;;;7.20;5.30;;;;;;;9.58;69.76;96851.05;107657;1266;69312;-70
2022/12/09 10:38:17;;;;;;;7.20;4.80;;;;;;;9.39;71.28;96840.45;107616;1267;69296;-70
2022/12/09 10:40:51;;;;;;;8.60;6.20;;;;;;;9.36;70.98;96832.16;107617;1267;59713;-70
2022/12/09 10:46:23;;;;;;;7.80;5.80;;;;;;;9.27;72.56;96819.88;107533;1267;71354;-70
2022/12/09 10:48:57;;;;;;;7.10;5.30;;;;;;;9.26;73.77;96816.30;107787;1267;69810;-70
2022/12/09 10:51:28;;;;;;;8.70;6.40;;;;;;;9.30;74.63;96823.64;107985;1267;68281;-70
2022/12/09 10:54:10;;;;;;;8.70;6.40;;;;;;;9.35;75.15;96826.69;107765;1268;59661;-70
2022/12/09 10:57:22;;;;;;;9.70;7.00;;;;;;;9.48;75.53;96822.92;107767;1270;59671;-69
2022/12/09 10:59:58;;;;;;;8.40;6.20;;;;;;;9.67;74.03;96821.77;107518;1265;70882;-70
2022/12/09 11:02:29;;;;;;;6.90;4.60;;;;;;;9.80;73.36;96818.30;107719;1269;68724;-70
2022/12/09 11:05:27;;;;;;;5.80;4.40;;;;;;;9.91;73.44;96809.60;107623;1269;68252;-70
2022/12/09 11:07:57;;;;;;;7.80;5.20;;;;;;;10.12;72.96;96805.16;107735;1269;59735;-69
2022/12/09 11:10:28;;;;;;;7.40;6.00;;;;;;;10.27;73.22;96805.89;107659;1270;59711;-70
2022/12/09 11:13:07;;;;;;;8.90;6.30;;;;;;;10.38;73.02;96809.02;107594;1269;69572;-71
2022/12/09 11:15:43;;;;;;;7.90;5.70;;;;;;;10.56;73.58;96806.45;107643;1268;69149;-71
2022/12/09 11:18:26;;;;;;;6.80;5.00;;;;;;;11.30;72.27;96803.95;107736;1263;68497;-69
2022/12/09 11:21:03;;;;;;;7.70;5.90;;;;;;;12.33;69.66;96807.73;107655;1269;59767;-70
2022/12/09 11:23:35;;;;;;;6.20;4.70;;;;;;;13.48;67.34;96804.72;107636;1269;59728;-70
2022/12/09 11:26:20;;;;;;;7.40;5.80;;;;;;;14.15;64.99;96797.41;107708;1269;71571;-70
2022/12/09 11:29:02;;;;;;;7.50;4.80;;;;;;;15.00;60.94;96787.91;107624;1268;69172;-70
2022/12/09 11:31:37;;;;;;;5.60;4.10;;;;;;;15.98;60.37;96788.45;107670;1269;68105;-72
2022/12/09 11:34:22;;;;;;;4.90;4.30;;;;;;;16.87;56.06;96778.47;107705;1269;59747;-71
2022/12/09 11:36:55;;;;;;;5.50;4.20;;;;;;;17.72;54.39;96772.19;107848;1269;59763;-69
2022/12/09 11:39:31;;;;;;;6.70;5.10;;;;;;;18.13;51.33;96768.39;107657;1269;71646;-70
2022/12/09 11:42:13;;;;;;;5.80;4.60;;;;;;;18.22;49.69;96766.16;107667;1268;69156;-71
2022/12/09 11:45:16;;;;;;;5.30;4.20;;;;;;;18.61;50.26;96756.08;107661;1269;70271;-69